Tivoli, Pennsylvania
Current Conditions -  °F | °C
As of 4:54 AM on Sunday 21 Dec 2014 (Local Time) from KIPT Reporting Station
Overcast Overcast  
Wind Chill: 31°   Ceiling: 3000
Heat Index: 31°   Visibility: 10mi
Dew Point: 21°   Wind: 3mph
Humidity: 67%   Direction: 260°W
Pressure: 30.27"   Gusts: NA
Location:  41.2862°N, 76.6822°W
Report Text: KIPT 210954Z AUTO 26003KT 10SM OVC030 M01/M06 A3027 RMK AO2 SLP258 T10061061
Loading
Personal Weather Stations






























Interactive Weather Map New forecast layout! Learn more

10-Day Weather Forecast

Advertisements
Track Severe Weather on mobile